Portada
METAR-TAF:

METAR-TAF

Aeroports :

Edimburg, Escòcia

latitud: 55-57N, longitud: 003-21W, altitud: 41 m

Observació

L'informe es va fer fa 15 minuts, a les 06:20 UTC
Vent 6 kt del Oest/Sud-Oest
Temperatura 0°C
Humitat 100%
Pressió 995 hPa
Visibilitat 10 km o més
sense núvols per sota de 1500 mi sense presència de cumulonimbus.

METAR: EGPH 260620Z 25006KT CAVOK 00/M00 Q0995

Hora: 06:35 (06:35 UTC)

Pronòstic

L'informe es va fer fa 1 hora i 38 minuts, a les 04:57 UTC
Pronòstic vàlid del 26 a les 06 UTC al 27 a les 06 UTC
Vent 9 kt del Oest/Sud-Oest
Visibilitat 10 km o més
Escasses núvols a una alçada de 2000 ft
Probabilitat 30% :
Temporalment
l' 26 a les 12 UTC al 27 a les 06 UTC
Vent 15 kt del Oest amb ràfegues de 25 kt
Visibilitat: 6000 m
Cel ennuvolat a una alçada de 1200 ft
xàfecs de pluja, neu

TAF: EGPH 260457Z 2606/2706 25009KT 9999 FEW020 PROB30 TEMPO 2612/2706 26015G25KT 6000 SHRASN BKN012

Observacions i pronòstics meteorològics de més de 4000 aeroports (METAR i TAF).

Les estacions disponibles són els punts grocs i vermells al mapa.

Posi el ratolí al punt desitjat per veure el nom de l'estació.

Feu clic per veure les observacions i els pronòstics meteorològics.

Per canviar el mapa: feu clic els botons verds amb una creu de color negre per apropar; al botó verd amb un guió per allunyar la imatge; o en les fletxes verdes per a mapes adjacents.


METAR-TAF: